createdAt,value
2019-03-03T00:00:46.968Z,8
2019-03-03T00:01:54.171Z,8
2019-03-03T00:03:01.408Z,8
2019-03-03T00:04:08.615Z,8
2019-03-03T00:05:15.822Z,8
2019-03-03T00:06:22.490Z,8
2019-03-03T00:07:29.716Z,8
2019-03-03T00:08:36.933Z,8
2019-03-03T00:09:43.854Z,8
2019-03-03T00:10:50.793Z,8.1
2019-03-03T00:11:57.997Z,8
2019-03-03T00:13:05.198Z,8.1
2019-03-03T00:14:12.131Z,8.1
2019-03-03T00:15:19.337Z,8.1
2019-03-03T00:16:26.537Z,8.1
2019-03-03T00:17:33.473Z,8.1
2019-03-03T00:18:40.431Z,8.1
2019-03-03T00:19:47.644Z,8.1
2019-03-03T00:20:54.870Z,8.1
2019-03-03T00:22:02.082Z,8.1
2019-03-03T00:23:09.284Z,8.2
2019-03-03T00:24:15.928Z,8.2
2019-03-03T00:25:23.127Z,8.2
2019-03-03T00:26:30.334Z,8.2
2019-03-03T00:27:37.553Z,8.2
2019-03-03T00:28:44.762Z,8.2
2019-03-03T00:29:51.707Z,8.2
2019-03-03T00:30:59.527Z,8.2
2019-03-03T00:32:06.796Z,8.2
2019-03-03T00:33:13.722Z,8.2
2019-03-03T00:34:20.926Z,8.2
2019-03-03T00:35:28.140Z,8.2
2019-03-03T00:36:37.873Z,8.2
2019-03-03T00:37:44.808Z,8.2
2019-03-03T00:38:52.019Z,8.1
2019-03-03T00:39:59.233Z,8.2
2019-03-03T00:41:06.541Z,8.2
2019-03-03T00:42:13.480Z,8.1
2019-03-03T00:43:20.689Z,8.1
2019-03-03T00:44:27.903Z,8.1
2019-03-03T00:45:34.553Z,8.2
2019-03-03T00:46:41.484Z,8.2
2019-03-03T00:47:48.409Z,8.2
2019-03-03T00:48:55.611Z,8.2
2019-03-03T00:50:02.834Z,8.2
2019-03-03T00:51:09.772Z,8.1
2019-03-03T00:52:16.990Z,8.1
2019-03-03T00:53:24.199Z,8.1
2019-03-03T00:54:31.404Z,8.1
2019-03-03T00:55:38.613Z,8.1
2019-03-03T00:56:45.818Z,8
2019-03-03T00:57:53.027Z,8
2019-03-03T00:58:59.970Z,7.9
2019-03-03T01:00:07.182Z,7.9
2019-03-03T01:01:14.125Z,7.9
2019-03-03T01:02:21.331Z,7.9
2019-03-03T01:03:28.545Z,7.9
2019-03-03T01:04:35.758Z,7.9
2019-03-03T01:05:42.981Z,7.8
2019-03-03T01:06:50.180Z,7.8
2019-03-03T01:07:57.113Z,7.8
2019-03-03T01:09:04.326Z,7.8
2019-03-03T01:10:11.249Z,7.8
2019-03-03T01:11:18.464Z,7.8
2019-03-03T01:12:25.666Z,7.7
2019-03-03T01:13:32.867Z,7.8
2019-03-03T01:14:40.081Z,7.8
2019-03-03T01:15:47.295Z,7.9
2019-03-03T01:16:54.240Z,7.9
2019-03-03T01:18:01.443Z,7.9
2019-03-03T01:19:08.667Z,7.9
2019-03-03T01:20:15.593Z,7.9
2019-03-03T01:21:22.814Z,7.9
2019-03-03T01:22:30.024Z,7.9
2019-03-03T01:23:37.232Z,7.9
2019-03-03T01:24:44.172Z,7.9
2019-03-03T01:25:51.109Z,7.9
2019-03-03T01:26:58.315Z,7.9
2019-03-03T01:28:05.536Z,7.8
2019-03-03T01:29:12.747Z,7.8
2019-03-03T01:30:19.968Z,7.8
2019-03-03T01:31:27.222Z,7.8
2019-03-03T01:32:34.433Z,7.8
2019-03-03T01:33:41.632Z,7.8
2019-03-03T01:34:48.556Z,7.8
2019-03-03T01:35:55.762Z,7.8
2019-03-03T01:37:02.697Z,7.8
2019-03-03T01:38:09.619Z,7.8
2019-03-03T01:39:16.832Z,7.8
2019-03-03T01:40:24.038Z,7.8
2019-03-03T01:41:31.269Z,7.9
2019-03-03T01:42:38.475Z,7.9
2019-03-03T01:43:45.671Z,7.9
2019-03-03T01:44:52.621Z,7.8
2019-03-03T01:45:59.841Z,7.8
2019-03-03T01:47:07.051Z,7.8
2019-03-03T01:48:14.494Z,7.8
2019-03-03T01:49:22.049Z,7.8
2019-03-03T01:50:28.695Z,7.8
2019-03-03T01:51:35.893Z,7.8
2019-03-03T01:52:43.099Z,7.8
2019-03-03T01:53:50.038Z,7.8
2019-03-03T01:54:57.240Z,7.8
2019-03-03T01:56:04.443Z,7.8
2019-03-03T01:57:11.670Z,7.8
2019-03-03T01:58:18.859Z,7.8
2019-03-03T01:59:26.061Z,7.8
2019-03-03T02:00:33.265Z,7.8
2019-03-03T02:01:40.466Z,7.8
2019-03-03T02:02:47.674Z,7.8
2019-03-03T02:03:54.609Z,7.8
2019-03-03T02:05:01.542Z,7.8
2019-03-03T02:06:08.748Z,7.8
2019-03-03T02:07:15.689Z,7.9
2019-03-03T02:08:22.624Z,7.9
2019-03-03T02:09:29.832Z,7.8
2019-03-03T02:10:37.052Z,7.8
2019-03-03T02:11:44.012Z,7.8
2019-03-03T02:12:51.218Z,7.8
2019-03-03T02:13:58.423Z,7.8
2019-03-03T02:15:05.634Z,7.9
2019-03-03T02:16:12.837Z,7.9
2019-03-03T02:17:20.048Z,7.9
2019-03-03T02:18:26.981Z,7.9
2019-03-03T02:19:34.185Z,7.9
2019-03-03T02:20:41.388Z,7.9
2019-03-03T02:21:48.588Z,7.9
2019-03-03T02:22:55.527Z,7.9
2019-03-03T02:24:02.734Z,7.9
2019-03-03T02:25:09.940Z,8
2019-03-03T02:26:17.160Z,7.9
2019-03-03T02:27:24.091Z,8
2019-03-03T02:28:31.017Z,8
2019-03-03T02:29:38.235Z,8
2019-03-03T02:30:45.434Z,8
2019-03-03T02:31:52.686Z,7.9
2019-03-03T02:32:59.631Z,7.9
2019-03-03T02:34:06.833Z,7.9
2019-03-03T02:35:13.785Z,7.9
2019-03-03T02:36:21.028Z,8
2019-03-03T02:37:28.362Z,7.9
2019-03-03T02:38:35.577Z,7.9
2019-03-03T02:39:42.783Z,7.9
2019-03-03T02:40:49.996Z,7.9
2019-03-03T02:41:57.210Z,7.9
2019-03-03T02:43:04.414Z,7.9
2019-03-03T02:44:11.613Z,7.9
2019-03-03T02:45:18.835Z,7.9
2019-03-03T02:46:26.046Z,7.9
2019-03-03T02:47:32.701Z,7.9
2019-03-03T02:48:39.942Z,7.9
2019-03-03T02:49:47.150Z,7.9
2019-03-03T02:50:54.349Z,7.9
2019-03-03T02:52:01.557Z,8
2019-03-03T02:53:08.754Z,8
2019-03-03T02:54:15.960Z,7.9
2019-03-03T02:55:23.168Z,7.9
2019-03-03T02:56:30.379Z,8
2019-03-03T02:57:37.591Z,7.9
2019-03-03T02:58:44.807Z,7.9
2019-03-03T02:59:51.743Z,7.9
2019-03-03T03:00:58.951Z,7.9
2019-03-03T03:02:06.175Z,7.9
2019-03-03T03:03:13.386Z,7.9
2019-03-03T03:04:20.337Z,7.9
2019-03-03T03:05:27.558Z,7.8
2019-03-03T03:06:34.497Z,7.8
2019-03-03T03:07:41.723Z,7.8
2019-03-03T03:08:48.930Z,7.8
2019-03-03T03:09:55.882Z,7.8
2019-03-03T03:11:02.815Z,7.8
2019-03-03T03:12:09.751Z,7.8
2019-03-03T03:13:16.677Z,7.8
2019-03-03T03:14:23.888Z,7.9
2019-03-03T03:15:31.099Z,7.8
2019-03-03T03:16:38.311Z,7.8
2019-03-03T03:17:45.520Z,7.8
2019-03-03T03:18:52.725Z,7.8
2019-03-03T03:19:59.935Z,7.8
2019-03-03T03:21:07.151Z,7.8
2019-03-03T03:22:14.362Z,7.8
2019-03-03T03:23:21.558Z,7.8
2019-03-03T03:24:28.778Z,7.8
2019-03-03T03:25:35.716Z,7.8
2019-03-03T03:26:42.958Z,7.8
2019-03-03T03:27:49.885Z,7.8
2019-03-03T03:28:57.101Z,7.8
2019-03-03T03:30:04.319Z,7.8
2019-03-03T03:31:11.565Z,7.8
2019-03-03T03:32:18.774Z,7.8
2019-03-03T03:33:26.024Z,7.7
2019-03-03T03:34:33.231Z,7.7
2019-03-03T03:35:40.469Z,7.7
2019-03-03T03:36:47.693Z,7.7
2019-03-03T03:37:54.904Z,7.7
2019-03-03T03:39:02.132Z,7.7
2019-03-03T03:40:09.335Z,7.7
2019-03-03T03:41:16.537Z,7.7
2019-03-03T03:42:23.977Z,7.7
2019-03-03T03:43:31.210Z,7.7
2019-03-03T03:44:38.387Z,7.7
2019-03-03T03:45:45.595Z,7.6
2019-03-03T03:46:52.828Z,7.7
2019-03-03T03:47:59.787Z,7.6
2019-03-03T03:49:06.771Z,7.6
2019-03-03T03:50:13.992Z,7.6
2019-03-03T03:51:21.292Z,7.6
2019-03-03T03:52:28.486Z,7.5
2019-03-03T03:53:35.706Z,7.6
2019-03-03T03:54:42.925Z,7.5
2019-03-03T03:55:50.132Z,7.5
2019-03-03T03:56:57.057Z,7.6
2019-03-03T03:58:04.284Z,7.5
2019-03-03T03:59:11.229Z,7.5
2019-03-03T04:00:18.157Z,7.5
2019-03-03T04:01:25.380Z,7.5
2019-03-03T04:02:32.354Z,7.6
2019-03-03T04:03:39.586Z,7.5
2019-03-03T04:04:46.808Z,7.6
2019-03-03T04:05:54.021Z,7.5
2019-03-03T04:07:01.000Z,7.5
2019-03-03T04:08:08.284Z,7.5
2019-03-03T04:09:15.767Z,7.5
2019-03-03T04:10:22.973Z,7.5
2019-03-03T04:11:30.413Z,7.6
2019-03-03T04:12:37.354Z,7.6
2019-03-03T04:13:44.302Z,7.5
2019-03-03T04:14:51.512Z,7.5
2019-03-03T04:15:58.441Z,7.5
2019-03-03T04:17:05.647Z,7.5
2019-03-03T04:18:12.873Z,7.5
2019-03-03T04:19:19.801Z,7.5
2019-03-03T04:20:27.228Z,7.5
2019-03-03T04:21:34.164Z,7.5
2019-03-03T04:22:41.406Z,7.5
2019-03-03T04:23:48.618Z,7.5
2019-03-03T04:24:55.830Z,7.5
2019-03-03T04:26:03.036Z,7.4
2019-03-03T04:27:10.243Z,7.5
2019-03-03T04:28:17.467Z,7.5
2019-03-03T04:29:24.680Z,7.5
2019-03-03T04:30:31.880Z,7.5
2019-03-03T04:31:38.821Z,7.5
2019-03-03T04:32:46.028Z,7.5
2019-03-03T04:33:52.691Z,7.5
2019-03-03T04:34:59.910Z,7.4
2019-03-03T04:36:07.113Z,7.4
2019-03-03T04:37:14.056Z,7.5
2019-03-03T04:38:21.007Z,7.4
2019-03-03T04:39:28.235Z,7.4
2019-03-03T04:40:35.445Z,7.4
2019-03-03T04:41:42.667Z,7.4
2019-03-03T04:42:49.867Z,7.4
2019-03-03T04:43:57.068Z,7.4
2019-03-03T04:45:04.298Z,7.4
2019-03-03T04:46:11.512Z,7.4
2019-03-03T04:47:18.671Z,7.4
2019-03-03T04:48:25.368Z,7.4
2019-03-03T04:49:32.323Z,7.4
2019-03-03T04:50:39.263Z,7.4
2019-03-03T04:51:46.471Z,7.4
2019-03-03T04:52:53.702Z,7.4
2019-03-03T04:54:00.637Z,7.4
2019-03-03T04:55:07.319Z,7.4
2019-03-03T04:56:14.537Z,7.4
2019-03-03T04:57:21.763Z,7.4
2019-03-03T04:58:28.444Z,7.4
2019-03-03T04:59:35.657Z,7.4
2019-03-03T05:00:43.097Z,7.4
2019-03-03T05:01:50.546Z,7.4
2019-03-03T05:02:57.973Z,7.3
2019-03-03T05:04:05.201Z,7.3
2019-03-03T05:05:12.425Z,7.3
2019-03-03T05:06:19.652Z,7.3
2019-03-03T05:07:26.860Z,7.3
2019-03-03T05:08:34.074Z,7.3
2019-03-03T05:09:41.318Z,7.3
2019-03-03T05:10:48.529Z,7.3
2019-03-03T05:11:55.738Z,7.3
2019-03-03T05:13:02.951Z,7.2
2019-03-03T05:14:09.888Z,7.3
2019-03-03T05:15:17.107Z,7.2
2019-03-03T05:16:24.336Z,7.2
2019-03-03T05:17:31.277Z,7.2
2019-03-03T05:18:38.509Z,7.2
2019-03-03T05:19:45.747Z,7.2
2019-03-03T05:20:53.191Z,7.2
2019-03-03T05:22:00.397Z,7.2
2019-03-03T05:23:07.572Z,7.2
2019-03-03T05:24:14.498Z,7.2
2019-03-03T05:25:23.465Z,7.1
2019-03-03T05:26:30.685Z,7.2
2019-03-03T05:27:37.630Z,7.2
2019-03-03T05:28:44.839Z,7.2
2019-03-03T05:29:52.060Z,7.2
2019-03-03T05:30:59.292Z,7.2
2019-03-03T05:32:06.729Z,7.2
2019-03-03T05:33:13.948Z,7.2
2019-03-03T05:34:21.394Z,7.2
2019-03-03T05:35:28.347Z,7.2
2019-03-03T05:36:35.781Z,7.2
2019-03-03T05:37:42.994Z,7.2
2019-03-03T05:38:50.265Z,7.3
2019-03-03T05:39:57.229Z,7.3
2019-03-03T05:41:04.469Z,7.3
2019-03-03T05:42:11.703Z,7.3
2019-03-03T05:43:19.175Z,7.3
2019-03-03T05:44:26.396Z,7.3
2019-03-03T05:45:33.618Z,7.4
2019-03-03T05:46:40.841Z,7.3
2019-03-03T05:47:48.061Z,7.4
2019-03-03T05:48:55.320Z,7.3
2019-03-03T05:50:02.535Z,7.4
2019-03-03T05:51:09.738Z,7.3
2019-03-03T05:52:17.181Z,7.4
2019-03-03T05:53:24.388Z,7.4
2019-03-03T05:54:31.542Z,7.4
2019-03-03T05:55:38.771Z,7.4
2019-03-03T05:56:45.984Z,7.4
2019-03-03T05:57:53.215Z,7.4
2019-03-03T05:59:00.419Z,7.4
2019-03-03T06:00:07.651Z,7.4
2019-03-03T06:01:14.859Z,7.4
2019-03-03T06:02:21.540Z,7.4
2019-03-03T06:03:28.762Z,7.4
2019-03-03T06:04:35.987Z,7.4
2019-03-03T06:05:43.212Z,7.4
2019-03-03T06:06:49.864Z,7.3
2019-03-03T06:07:56.831Z,7.4
2019-03-03T06:09:04.030Z,7.4
2019-03-03T06:10:11.454Z,7.4
2019-03-03T06:11:18.668Z,7.4
2019-03-03T06:12:25.601Z,7.4
2019-03-03T06:13:32.883Z,7.3
2019-03-03T06:14:40.095Z,7.4
2019-03-03T06:15:47.345Z,7.4
2019-03-03T06:16:54.561Z,7.3
2019-03-03T06:18:01.779Z,7.3
2019-03-03T06:19:09.226Z,7.4
2019-03-03T06:20:16.428Z,7.4
2019-03-03T06:21:23.863Z,7.4
2019-03-03T06:22:30.796Z,7.4
2019-03-03T06:23:38.005Z,7.4
2019-03-03T06:24:45.227Z,7.5
2019-03-03T06:25:52.441Z,7.5
2019-03-03T06:26:59.388Z,7.5
2019-03-03T06:28:06.606Z,7.5
2019-03-03T06:29:13.814Z,7.5
2019-03-03T06:30:21.249Z,7.5
2019-03-03T06:31:28.188Z,7.6
2019-03-03T06:32:35.630Z,7.6
2019-03-03T06:33:42.841Z,7.6
2019-03-03T06:34:50.056Z,7.6
2019-03-03T06:35:57.278Z,7.6
2019-03-03T06:37:04.503Z,7.6
2019-03-03T06:38:11.725Z,7.6
2019-03-03T06:39:18.925Z,7.6
2019-03-03T06:40:26.163Z,7.6
2019-03-03T06:41:33.387Z,7.6
2019-03-03T06:42:39.783Z,7.6
2019-03-03T06:43:46.994Z,7.7
2019-03-03T06:44:54.205Z,7.7
2019-03-03T06:46:01.151Z,7.7
2019-03-03T06:47:08.352Z,7.7
2019-03-03T06:48:15.578Z,7.8
2019-03-03T06:49:22.783Z,7.7
2019-03-03T06:50:29.722Z,7.8
2019-03-03T06:51:36.660Z,7.7
2019-03-03T06:52:43.623Z,7.8
2019-03-03T06:53:50.839Z,7.7
2019-03-03T06:54:58.042Z,7.7
2019-03-03T06:56:05.251Z,7.8
2019-03-03T06:57:12.699Z,7.8
2019-03-03T06:58:19.909Z,7.8
2019-03-03T06:59:26.851Z,7.8
2019-03-03T07:00:34.060Z,7.8
2019-03-03T07:01:41.053Z,7.8
2019-03-03T07:02:48.267Z,7.9
2019-03-03T07:03:55.491Z,7.9
2019-03-03T07:05:02.447Z,7.9
2019-03-03T07:06:09.389Z,7.9
2019-03-03T07:07:16.592Z,7.9
2019-03-03T07:08:23.814Z,7.9
2019-03-03T07:09:31.022Z,8
2019-03-03T07:10:38.457Z,8
2019-03-03T07:11:45.666Z,8
2019-03-03T07:12:52.372Z,8
2019-03-03T07:13:59.594Z,8
2019-03-03T07:15:06.834Z,8
2019-03-03T07:16:14.061Z,8.1
2019-03-03T07:17:21.024Z,8.1
2019-03-03T07:18:28.252Z,8.1
2019-03-03T07:19:35.198Z,8.1
2019-03-03T07:20:42.427Z,8.1
2019-03-03T07:21:49.676Z,8.1
2019-03-03T07:22:56.902Z,8.1
2019-03-03T07:24:04.340Z,8.2
2019-03-03T07:25:11.555Z,8.2
2019-03-03T07:26:18.794Z,8.2
2019-03-03T07:27:25.993Z,8.2
2019-03-03T07:28:33.437Z,8.2
2019-03-03T07:29:40.407Z,8.2
2019-03-03T07:30:47.339Z,8.2
2019-03-03T07:31:54.563Z,8.2
2019-03-03T07:33:01.503Z,8.2
2019-03-03T07:34:08.456Z,8.2
2019-03-03T07:35:15.682Z,8.2
2019-03-03T07:36:22.897Z,8.2
2019-03-03T07:37:30.346Z,8.2
2019-03-03T07:38:37.553Z,8.3
2019-03-03T07:39:44.760Z,8.3
2019-03-03T07:40:51.966Z,8.2
2019-03-03T07:41:59.406Z,8.3
2019-03-03T07:43:06.617Z,8.3
2019-03-03T07:44:13.833Z,8.3
2019-03-03T07:45:21.039Z,8.3
2019-03-03T07:46:28.277Z,8.3
2019-03-03T07:47:35.514Z,8.3
2019-03-03T07:48:42.736Z,8.3
2019-03-03T07:49:49.965Z,8.3
2019-03-03T07:50:57.168Z,8.3
2019-03-03T07:52:04.371Z,8.3
2019-03-03T07:53:11.334Z,8.4
2019-03-03T07:54:18.536Z,8.4
2019-03-03T07:55:25.978Z,8.4
2019-03-03T07:56:33.194Z,8.4
2019-03-03T07:57:40.396Z,8.4
2019-03-03T07:58:47.623Z,8.4
2019-03-03T07:59:54.881Z,8.4
2019-03-03T08:01:02.084Z,8.5
2019-03-03T08:02:09.310Z,8.4
2019-03-03T08:03:16.539Z,8.4
2019-03-03T08:04:23.789Z,8.5
2019-03-03T08:05:30.757Z,8.5
2019-03-03T08:06:37.979Z,8.4
2019-03-03T08:07:45.202Z,8.5
2019-03-03T08:08:52.653Z,8.5
2019-03-03T08:09:59.612Z,8.5
2019-03-03T08:11:07.154Z,8.5
2019-03-03T08:12:14.369Z,8.6
2019-03-03T08:13:21.810Z,8.5
2019-03-03T08:14:28.737Z,8.6
2019-03-03T08:15:35.957Z,8.5
2019-03-03T08:16:42.917Z,8.5
2019-03-03T08:17:49.588Z,8.6
2019-03-03T08:18:56.818Z,8.6
2019-03-03T08:20:04.256Z,8.6
2019-03-03T08:21:11.242Z,8.6
2019-03-03T08:22:18.654Z,8.6
2019-03-03T08:23:25.871Z,8.6
2019-03-03T08:24:33.313Z,8.6
2019-03-03T08:25:40.260Z,8.6
2019-03-03T08:26:47.183Z,8.6
2019-03-03T08:27:54.134Z,8.7
2019-03-03T08:29:01.357Z,8.7
2019-03-03T08:30:08.581Z,8.7
2019-03-03T08:31:16.008Z,8.7
2019-03-03T08:32:23.220Z,8.6
2019-03-03T08:33:30.668Z,8.7
2019-03-03T08:34:37.884Z,8.6
2019-03-03T08:35:45.105Z,8.7
2019-03-03T08:36:52.315Z,8.7
2019-03-03T08:37:59.761Z,8.7
2019-03-03T08:39:06.970Z,8.7
2019-03-03T08:40:14.196Z,8.7
2019-03-03T08:41:21.130Z,8.7
2019-03-03T08:42:28.342Z,8.7
2019-03-03T08:43:35.567Z,8.8
2019-03-03T08:44:42.505Z,8.8
2019-03-03T08:45:49.733Z,8.8
2019-03-03T08:46:56.947Z,8.7
2019-03-03T08:48:04.153Z,8.8
2019-03-03T08:49:11.597Z,8.8
2019-03-03T08:50:18.821Z,8.8
2019-03-03T08:51:26.266Z,8.8
2019-03-03T08:52:33.487Z,8.8
2019-03-03T08:53:40.697Z,8.8
2019-03-03T08:54:47.936Z,8.8
2019-03-03T08:55:54.888Z,8.8
2019-03-03T08:57:02.126Z,8.9
2019-03-03T08:58:09.080Z,8.9
2019-03-03T08:59:16.014Z,8.9
2019-03-03T09:00:23.455Z,8.9
2019-03-03T09:01:30.665Z,8.9
2019-03-03T09:02:37.621Z,8.9
2019-03-03T09:03:44.551Z,8.9
2019-03-03T09:04:51.768Z,8.9
2019-03-03T09:05:58.704Z,8.9
2019-03-03T09:07:05.397Z,8.9
2019-03-03T09:08:12.622Z,8.9
2019-03-03T09:09:19.852Z,8.9
2019-03-03T09:10:27.061Z,9
2019-03-03T09:11:34.308Z,9
2019-03-03T09:12:41.523Z,9
2019-03-03T09:13:48.690Z,9
2019-03-03T09:14:55.894Z,9
2019-03-03T09:16:03.121Z,9.1
2019-03-03T09:17:10.332Z,9.1
2019-03-03T09:18:17.578Z,9.1
2019-03-03T09:19:24.779Z,9.1
2019-03-03T09:20:31.992Z,9.1
2019-03-03T09:21:39.202Z,9.1
2019-03-03T09:22:46.143Z,9.2
2019-03-03T09:23:53.354Z,9.2
2019-03-03T09:25:00.743Z,9.2
2019-03-03T09:26:07.958Z,9.2
2019-03-03T09:27:15.194Z,9.2
2019-03-03T09:28:22.129Z,9.2
2019-03-03T09:29:29.349Z,9.3
2019-03-03T09:30:36.562Z,9.3
2019-03-03T09:31:43.780Z,9.3
2019-03-03T09:32:50.989Z,9.3
2019-03-03T09:33:58.197Z,9.3
2019-03-03T09:35:05.418Z,9.3
2019-03-03T09:36:12.624Z,9.4
2019-03-03T09:37:19.831Z,9.4
2019-03-03T09:38:26.780Z,9.4
2019-03-03T09:39:34.003Z,9.4
2019-03-03T09:40:41.209Z,9.4
2019-03-03T09:41:48.419Z,9.4
2019-03-03T09:42:55.350Z,9.5
2019-03-03T09:44:02.283Z,9.5
2019-03-03T09:45:09.186Z,9.5
2019-03-03T09:46:16.404Z,9.5
2019-03-03T09:47:23.598Z,9.6
2019-03-03T09:48:30.810Z,9.6
2019-03-03T09:49:38.006Z,9.6
2019-03-03T09:50:44.950Z,9.6
2019-03-03T09:51:52.155Z,9.6
2019-03-03T09:52:59.093Z,9.6
2019-03-03T09:54:06.296Z,9.7
2019-03-03T09:55:13.505Z,9.7
2019-03-03T09:56:20.443Z,9.7
2019-03-03T09:57:27.658Z,9.7
2019-03-03T09:58:34.860Z,9.8
2019-03-03T09:59:42.071Z,9.8
2019-03-03T10:00:49.282Z,9.8
2019-03-03T10:01:56.492Z,9.8
2019-03-03T10:03:03.704Z,9.9
2019-03-03T10:04:10.917Z,9.9
2019-03-03T10:05:17.590Z,9.9
2019-03-03T10:06:24.803Z,10
2019-03-03T10:07:32.026Z,10.1
2019-03-03T10:08:39.245Z,10.1
2019-03-03T10:09:46.452Z,10.2
2019-03-03T10:10:53.386Z,10.3
2019-03-03T10:12:00.607Z,10.3
2019-03-03T10:13:07.829Z,10.5
2019-03-03T10:14:15.070Z,10.5
2019-03-03T10:15:22.312Z,10.5
2019-03-03T10:16:29.517Z,10.6
2019-03-03T10:17:36.734Z,10.6
2019-03-03T10:18:43.689Z,10.6
2019-03-03T10:19:50.629Z,10.6
2019-03-03T10:20:57.836Z,10.7
2019-03-03T10:22:05.058Z,10.7
2019-03-03T10:23:11.999Z,10.7
2019-03-03T10:24:19.205Z,10.7
2019-03-03T23:00:06.590Z,9.5
2019-03-03T23:01:13.799Z,9.5
2019-03-03T23:02:36.137Z,9.5
2019-03-03T23:03:43.335Z,9.5
2019-03-03T23:04:50.556Z,9.5
2019-03-03T23:05:57.770Z,9.5
2019-03-03T23:07:04.976Z,9.6
2019-03-03T23:08:12.176Z,9.6
2019-03-03T23:09:19.111Z,9.6
2019-03-03T23:10:26.322Z,9.6
2019-03-03T23:11:33.536Z,9.6
2019-03-03T23:12:40.469Z,9.6
2019-03-03T23:13:47.672Z,9.5
2019-03-03T23:14:54.891Z,9.6
2019-03-03T23:16:02.095Z,9.6
2019-03-03T23:17:09.301Z,9.6
2019-03-03T23:18:16.236Z,9.6
2019-03-03T23:19:23.442Z,9.6
2019-03-03T23:20:30.669Z,9.6
2019-03-03T23:21:37.595Z,9.6
2019-03-03T23:22:46.764Z,9.6
2019-03-03T23:23:53.831Z,9.6
2019-03-03T23:25:01.041Z,9.6
2019-03-03T23:26:17.139Z,9.6
2019-03-03T23:27:24.340Z,9.6
2019-03-03T23:28:31.545Z,9.6
2019-03-03T23:29:38.751Z,9.6
2019-03-03T23:30:45.708Z,9.6
2019-03-03T23:31:52.916Z,9.6
2019-03-03T23:33:00.143Z,9.6
2019-03-03T23:34:07.365Z,9.5
2019-03-03T23:35:14.618Z,9.5
2019-03-03T23:36:21.845Z,9.5
2019-03-03T23:37:29.045Z,9.5
2019-03-03T23:38:35.987Z,9.5
2019-03-03T23:39:43.199Z,9.4
2019-03-03T23:40:49.906Z,9.4
2019-03-03T23:41:57.116Z,9.4
2019-03-03T23:43:04.064Z,9.4
2019-03-03T23:44:11.277Z,9.4
2019-03-03T23:45:18.505Z,9.3
2019-03-03T23:46:25.710Z,9.3
2019-03-03T23:47:32.915Z,9.2
2019-03-03T23:48:39.591Z,9.2
2019-03-03T23:49:46.796Z,9.2
2019-03-03T23:50:54.007Z,9.2
2019-03-03T23:52:00.673Z,9.2
2019-03-03T23:53:07.620Z,9.2
2019-03-03T23:54:14.845Z,9.2
2019-03-03T23:55:21.791Z,9.1
2019-03-03T23:56:29.007Z,9.1
2019-03-03T23:57:36.219Z,9.1
2019-03-03T23:58:43.442Z,9.1
2019-03-03T23:59:50.357Z,9
